createdAt,value
2019-05-03T00:00:31.951Z,34.60
2019-05-03T00:05:41.880Z,34.60
2019-05-03T00:10:51.689Z,34.70
2019-05-03T00:16:21.819Z,34.70
2019-05-03T00:21:29.584Z,34.80
2019-05-03T00:26:37.922Z,34.80
2019-05-03T00:31:47.028Z,34.90
2019-05-03T00:36:55.792Z,35.00
2019-05-03T00:42:04.808Z,35.00
2019-05-03T00:47:13.878Z,35.10
2019-05-03T00:52:23.120Z,35.10
2019-05-03T00:57:32.477Z,35.20
2019-05-03T01:02:42.329Z,35.20
2019-05-03T01:07:52.388Z,35.30
2019-05-03T01:13:01.691Z,35.40
2019-05-03T01:18:12.334Z,35.50
2019-05-03T01:23:21.938Z,35.50
2019-05-03T01:28:32.342Z,35.60
2019-05-03T01:33:40.336Z,35.70
2019-05-03T01:38:48.641Z,35.70
2019-05-03T01:43:57.237Z,35.80
2019-05-03T01:49:06.920Z,35.90
2019-05-03T01:54:15.319Z,35.90
2019-05-03T01:59:23.620Z,36.00
2019-05-03T02:04:33.004Z,36.10
2019-05-03T02:09:41.711Z,36.20
2019-05-03T02:14:51.583Z,36.30
2019-05-03T02:19:59.009Z,36.40
2019-05-03T02:25:08.513Z,36.50
2019-05-03T02:30:17.115Z,36.60
2019-05-03T02:35:25.005Z,36.60
2019-05-03T02:40:33.870Z,36.80
2019-05-03T02:45:45.702Z,36.80
2019-05-03T02:50:56.028Z,37.00
2019-05-03T02:56:15.019Z,37.10
2019-05-03T03:01:11.797Z,37.30
2019-05-03T03:06:23.048Z,37.40
2019-05-03T03:11:32.160Z,37.60
2019-05-03T03:16:40.833Z,37.70
2019-05-03T03:21:50.510Z,37.80
2019-05-03T03:27:00.222Z,37.90
2019-05-03T03:32:12.086Z,38.10
2019-05-03T03:37:21.077Z,38.20
2019-05-03T03:42:30.753Z,38.30
2019-05-03T03:47:40.073Z,38.50
2019-05-03T03:52:49.258Z,38.60
2019-05-03T03:57:57.638Z,38.80
2019-05-03T04:03:06.315Z,38.90
2019-05-03T04:08:28.213Z,39.10
2019-05-03T04:13:39.231Z,39.20
2019-05-03T04:18:49.289Z,39.30
2019-05-03T04:23:58.183Z,39.50
2019-05-03T04:29:07.529Z,39.60
2019-05-03T04:34:16.366Z,39.70
2019-05-03T04:39:25.554Z,39.80
2019-05-03T04:44:35.761Z,39.90
2019-05-03T04:49:42.771Z,40.10
2019-05-03T04:54:56.025Z,40.20
2019-05-03T05:00:06.008Z,40.40
2019-05-03T05:05:15.337Z,40.50
2019-05-03T05:10:27.804Z,40.50
2019-05-03T05:15:35.715Z,40.70
2019-05-03T05:20:45.390Z,40.80
2019-05-03T05:25:56.825Z,40.90
2019-05-03T05:31:05.363Z,41.00
2019-05-03T05:36:15.346Z,41.10
2019-05-03T05:41:24.502Z,41.30
2019-05-03T05:46:35.072Z,41.30
2019-05-03T05:52:04.909Z,41.30
2019-05-03T05:57:34.639Z,41.50
2019-05-03T06:02:44.699Z,41.50
2019-05-03T06:07:54.827Z,41.60
2019-05-03T06:13:04.915Z,41.70
2019-05-03T06:18:14.646Z,41.80
2019-05-03T06:23:24.776Z,41.60
2019-05-03T06:28:35.316Z,41.70
2019-05-03T06:33:45.050Z,41.70
2019-05-03T06:38:54.648Z,41.90
2019-05-03T06:44:04.250Z,41.90
2019-05-03T06:49:11.664Z,41.90
2019-05-03T06:54:25.446Z,41.80
2019-05-03T06:59:31.173Z,42.00
2019-05-03T07:04:40.494Z,42.10
2019-05-03T07:09:48.713Z,42.20
2019-05-03T07:14:57.209Z,42.30
2019-05-03T07:20:05.527Z,42.30
2019-05-03T07:25:14.964Z,42.30
2019-05-03T07:30:24.765Z,42.30
2019-05-03T07:35:32.447Z,42.50
2019-05-03T07:40:41.168Z,42.60
2019-05-03T07:45:49.130Z,42.60
2019-05-03T07:50:57.985Z,42.60
2019-05-03T07:56:07.659Z,42.60
2019-05-03T08:01:17.659Z,42.60
2019-05-03T08:06:25.739Z,42.60
2019-05-03T08:11:35.187Z,42.70
2019-05-03T08:16:45.482Z,42.90
2019-05-03T08:21:52.992Z,43.00
2019-05-03T08:27:01.469Z,42.90
2019-05-03T08:32:09.668Z,42.90
2019-05-03T08:37:19.907Z,43.00
2019-05-03T08:42:28.098Z,42.90
2019-05-03T08:47:36.195Z,42.80
2019-05-03T08:52:45.345Z,42.70
2019-05-03T08:57:55.146Z,42.60
2019-05-03T09:03:05.553Z,42.50
2019-05-03T09:08:15.738Z,42.50
2019-05-03T09:13:25.132Z,42.50
2019-05-03T09:18:35.118Z,42.50
2019-05-03T09:23:44.955Z,42.50
2019-05-03T09:28:52.540Z,42.50
2019-05-03T09:34:00.607Z,42.60
2019-05-03T09:39:10.074Z,42.70
2019-05-03T09:44:17.841Z,42.60
2019-05-03T09:49:25.916Z,42.60
2019-05-03T09:54:34.806Z,42.70
2019-05-03T09:59:55.760Z,42.60
2019-05-03T10:04:52.698Z,42.40
2019-05-03T10:10:00.842Z,42.40
2019-05-03T10:15:10.961Z,42.20
2019-05-03T10:20:20.989Z,42.10
2019-05-03T10:25:30.094Z,42.00
2019-05-03T10:30:39.488Z,41.80
2019-05-03T10:35:59.810Z,41.70
2019-05-03T10:41:09.042Z,41.50
2019-05-03T10:46:16.300Z,41.40
2019-05-03T10:51:25.034Z,41.30
2019-05-03T10:56:35.750Z,41.20
2019-05-03T11:01:45.294Z,41.10
2019-05-03T11:06:54.943Z,41.10
2019-05-03T11:12:05.318Z,40.50
2019-05-03T11:17:14.747Z,39.20
2019-05-03T11:22:22.552Z,39.00
2019-05-03T11:27:31.480Z,39.30
2019-05-03T11:32:40.943Z,39.40
2019-05-03T11:37:49.989Z,39.30
2019-05-03T11:42:59.177Z,39.30
2019-05-03T11:48:07.754Z,39.20
2019-05-03T11:53:17.660Z,39.20
2019-05-03T11:58:27.248Z,39.00
2019-05-03T12:03:36.599Z,38.70
2019-05-03T12:08:44.751Z,38.40
2019-05-03T12:14:02.411Z,38.80
2019-05-03T12:19:15.724Z,38.30
2019-05-03T12:24:11.660Z,38.50
2019-05-03T12:29:20.282Z,38.50
2019-05-03T12:34:28.080Z,38.40
2019-05-03T12:39:36.538Z,38.40
2019-05-03T12:44:45.900Z,38.20
2019-05-03T12:50:15.652Z,38.20
2019-05-03T12:55:25.792Z,38.10
2019-05-03T13:00:36.855Z,38.00
2019-05-03T13:05:44.950Z,38.00
2019-05-03T13:10:52.591Z,37.90
2019-05-03T13:16:04.476Z,37.90
2019-05-03T13:21:17.143Z,37.70
2019-05-03T13:26:25.411Z,37.70
2019-05-03T13:31:34.686Z,37.70
2019-05-03T13:36:45.476Z,37.70
2019-05-03T13:41:51.495Z,37.60
2019-05-03T13:46:58.436Z,37.60
2019-05-03T13:52:06.828Z,37.60
2019-05-03T13:57:15.802Z,37.50
2019-05-03T14:02:26.800Z,37.40
2019-05-03T14:07:35.324Z,37.30
2019-05-03T14:12:45.353Z,37.30
2019-05-03T14:17:52.494Z,37.20
2019-05-03T14:23:02.281Z,37.10
2019-05-03T14:28:16.083Z,37.10
2019-05-03T14:33:18.629Z,37.00
2019-05-03T14:38:28.204Z,37.00
2019-05-03T14:43:37.249Z,37.00
2019-05-03T14:48:46.057Z,36.90
2019-05-03T14:53:57.763Z,36.80
2019-05-03T14:59:07.604Z,36.80
2019-05-03T15:04:15.290Z,36.70
2019-05-03T15:09:25.148Z,36.70
2019-05-03T15:14:34.600Z,36.60
2019-05-03T15:19:46.532Z,36.60
2019-05-03T15:24:54.563Z,36.60
2019-05-03T15:30:04.965Z,36.50
2019-05-03T15:35:15.075Z,36.50
2019-05-03T15:40:22.284Z,36.50
2019-05-03T15:45:31.954Z,36.40
2019-05-03T15:50:39.460Z,36.40
2019-05-03T15:55:49.197Z,36.40
2019-05-03T16:00:56.540Z,36.30
2019-05-03T16:06:06.778Z,36.30
2019-05-03T16:11:15.498Z,36.20
2019-05-03T16:16:24.676Z,36.20
2019-05-03T16:21:34.179Z,36.20
2019-05-03T16:26:44.550Z,36.20
2019-05-03T16:31:51.854Z,36.20
2019-05-03T16:36:58.859Z,36.10
2019-05-03T16:42:06.830Z,36.10
2019-05-03T16:47:15.662Z,36.00
2019-05-03T16:52:45.548Z,35.90
2019-05-03T16:57:54.931Z,35.90
2019-05-03T17:03:02.207Z,35.80
2019-05-03T17:08:11.515Z,35.80
2019-05-03T17:13:19.303Z,35.80
2019-05-03T17:18:27.740Z,35.80
2019-05-03T17:23:35.963Z,35.70
2019-05-03T17:28:44.797Z,35.70
2019-05-03T17:33:54.504Z,35.60
2019-05-03T17:39:04.359Z,35.60
2019-05-03T17:44:14.439Z,35.60
2019-05-03T17:49:22.344Z,35.50
2019-05-03T17:54:30.278Z,35.40
2019-05-03T17:59:39.410Z,35.50
2019-05-03T18:04:48.675Z,35.40
2019-05-03T18:09:57.077Z,35.40
2019-05-03T18:15:25.118Z,35.40
2019-05-03T18:20:34.486Z,35.40
2019-05-03T18:25:41.618Z,35.40
2019-05-03T18:30:50.421Z,35.30
2019-05-03T18:35:58.824Z,35.30
2019-05-03T18:41:06.850Z,35.30
2019-05-03T18:46:16.423Z,35.20
2019-05-03T18:51:25.244Z,35.20
2019-05-03T18:56:34.671Z,35.20
2019-05-03T19:01:42.352Z,35.10
2019-05-03T19:07:02.059Z,35.10
2019-05-03T19:12:00.328Z,35.10
2019-05-03T19:17:09.246Z,35.00
2019-05-03T19:22:16.448Z,35.00
2019-05-03T19:27:25.163Z,35.00
2019-05-03T19:32:35.633Z,35.00
2019-05-03T19:37:46.387Z,35.00
2019-05-03T19:42:52.145Z,34.90
2019-05-03T19:48:00.028Z,34.90
2019-05-03T19:53:09.088Z,34.90
2019-05-03T19:58:16.619Z,34.90
2019-05-03T20:03:25.767Z,34.80
2019-05-03T20:08:35.194Z,34.80
2019-05-03T20:13:44.975Z,34.80
2019-05-03T20:18:52.431Z,34.80
2019-05-03T20:24:00.411Z,34.70
2019-05-03T20:29:08.324Z,34.70
2019-05-03T20:39:48.438Z,34.70
2019-05-03T20:44:56.755Z,34.60
2019-05-03T20:50:08.192Z,34.60
2019-05-03T20:55:17.641Z,34.60
2019-05-03T21:00:26.377Z,34.50
2019-05-03T21:05:35.387Z,34.50
2019-05-03T21:10:44.555Z,34.40
2019-05-03T21:15:52.805Z,34.40
2019-05-03T21:21:01.692Z,34.40
2019-05-03T21:26:13.378Z,34.40
2019-05-03T21:31:51.269Z,34.40
2019-05-03T21:36:59.641Z,34.30
2019-05-03T21:42:07.317Z,34.30
2019-05-03T21:47:16.967Z,34.30
2019-05-03T21:52:25.367Z,34.20
2019-05-03T21:57:34.463Z,34.20
2019-05-03T22:02:43.214Z,34.20
2019-05-03T22:07:51.109Z,34.10
2019-05-03T22:12:59.398Z,34.10
2019-05-03T22:18:07.682Z,34.10
2019-05-03T22:23:16.680Z,34.10
2019-05-03T22:28:24.629Z,34.10
2019-05-03T22:33:32.811Z,34.10
2019-05-03T22:38:40.530Z,34.10
2019-05-03T22:43:49.206Z,34.10
2019-05-03T22:48:57.143Z,34.00
2019-05-03T22:54:05.449Z,34.00
2019-05-03T22:59:14.749Z,34.00
2019-05-03T23:04:25.331Z,33.90
2019-05-03T23:09:32.756Z,33.90
2019-05-03T23:14:54.983Z,33.90
2019-05-03T23:20:04.518Z,33.90
2019-05-03T23:25:11.561Z,33.90
2019-05-03T23:35:50.897Z,34.00
2019-05-03T23:41:00.239Z,33.90
2019-05-03T23:46:08.096Z,34.00
2019-05-03T23:51:17.440Z,33.90
2019-05-03T23:56:25.422Z,33.90
